Home > Products > Valid Products > TAF

000
FTUS44 KLZK 301100
TAFLIT
TAF
KLIT 301137Z 3012/3112 35007KT P6SM SCT250
     FM301300 03009KT P6SM BKN250
     FM302100 07007KT P6SM BKN250
     FM310000 06003KT P6SM OVC250=



000
FTUS44 KLZK 301100
TAFHRO
TAF
KHRO 301137Z 3012/3112 31006KT P6SM SCT250
     FM301500 06006KT P6SM SCT250
     FM302200 10005KT P6SM BKN250
     FM310300 13003KT P6SM OVC250=



000
FTUS44 KLZK 301100
TAFPBF
TAF
KPBF 301137Z 3012/3112 01009KT P6SM SCT250
     FM301500 03010KT P6SM BKN250
     FM302100 04008KT P6SM BKN250
     FM310000 05003KT P6SM OVC250=



000
FTUS44 KLZK 301100
TAFHOT
TAF
KHOT 301137Z 3012/3112 01005KT P6SM BKN250
     FM301500 08006KT P6SM BKN250
     FM310000 08003KT P6SM OVC250=



000
FTUS44 KLZK 300500
TAFHRO
TAF
KHRO 300540Z 3006/3106 32006KT P6SM SKC
     FM301500 06004KT P6SM SCT250
     FM310000 12004KT P6SM BKN250=



000
FTUS44 KLZK 300500
TAFLIT
TAF
KLIT 300540Z 3006/3106 35007KT P6SM BKN250
     FM301300 02006KT P6SM SCT020 SCT250
     FM301700 05006KT P6SM SCT250
     FM310000 08004KT P6SM BKN250=



000
FTUS44 KLZK 300500
TAFPBF
TAF
KPBF 300540Z 3006/3106 01009KT P6SM BKN250
     FM301400 02006KT P6SM SCT020 SCT250
     FM301800 05006KT P6SM SCT250
     FM310000 08004KT P6SM BKN250=



000
FTUS44 KLZK 300500
TAFHOT
TAF
KHOT 300540Z 3006/3106 01005KT P6SM BKN250
     FM301500 08006KT P6SM SCT250=



000
FTUS44 KLZK 292300 RRA
TAFLIT
TAF
KLIT 292341Z 3000/3024 34010G18KT P6SM FEW035 SCT150
     FM300200 36005KT P6SM SCT030 SCT150
     FM301400 02006KT P6SM SCT015 SCT250
     FM301800 06006KT P6SM FEW025 SCT250=



000
FTUS44 KLZK 292300 RRA
TAFHRO
TAF
KHRO 292341Z 3000/3024 32010G20KT P6SM OVC035
     FM300300 34007KT P6SM SCT035
     FM300800 35004KT P6SM SCT012
     FM301600 06004KT P6SM FEW250
     FM302000 10004KT P6SM SCT250=



000
FTUS44 KLZK 292300 RRA
TAFHOT
TAF
KHOT 292341Z 3000/3024 32010KT P6SM SCT120
     FM300300 02005KT P6SM SCT030 SCT150
     FM301400 08006KT P6SM FEW015 FEW250=



000
FTUS44 KLZK 292300 RRA
TAFPBF
TAF
KPBF 292341Z 3000/3024 34010G18KT P6SM FEW035 SCT150
     FM300300 36005KT P6SM SCT030 SCT150
     FM301400 02006KT P6SM SCT015 SCT250
     FM301800 04006KT P6SM SCT250=



000
FTUS44 KLZK 291800 AAA
TAFPBF
TAF AMD
KPBF 291803Z 2918/3018 31010G21KT P6SM BKN250
     FM292200 34010KT P6SM BKN040 OVC150
     FM300300 01009KT P6SM BKN035
     FM300700 02006KT P6SM SCT035 BKN250=



000
FTUS44 KLZK 291800 AAA
TAFHRO
TAF AMD
KHRO 291802Z 2918/3018 32010G20KT P6SM OVC015
     FM300400 34010KT P6SM SCT020
     FM301700 08004KT P6SM BKN250=



000
FTUS44 KLZK 291700
TAFHOT
TAF
KHOT 291720Z 2918/3018 31008G18KT P6SM FEW120 BKN250
     FM292200 34010KT P6SM BKN025
     FM300100 35008KT P6SM SCT030 BKN200=



000
FTUS44 KLZK 291700
TAFHRO
TAF
KHRO 291720Z 2918/3018 32010G20KT P6SM BKN022
     FM300400 34010KT P6SM SCT020
     FM301700 08004KT P6SM BKN250=



000
FTUS44 KLZK 291700
TAFPBF
TAF
KPBF 291720Z 2918/3018 27010G21KT P6SM BKN250
     FM292200 34010KT P6SM BKN040 OVC150
     FM300300 01009KT P6SM BKN035
     FM300700 02006KT P6SM SCT035 BKN250=



000
FTUS44 KLZK 291700
TAFLIT
TAF
KLIT 291720Z 2918/3018 30010G18KT P6SM BKN250
     FM292100 34010KT P6SM BKN035
     FM301500 03005G15KT P6SM SCT025 BKN250=



000
FTUS44 KLZK 291400 AAB
TAFHRO
TAF AMD
KHRO 291444Z 2915/3012 32012G22KT P6SM BKN022
     FM300300 32006KT P6SM SCT250=



000
FTUS44 KLZK 291400 AAA
TAFHRO
TAF AMD
KHRO 291408Z 2914/3012 33008G15KT P6SM SCT250 WS020/33030KT
     FM291500 32012G22KT P6SM OVC015
     FM291900 34011G21KT P6SM BKN025
     FM300300 32006KT P6SM SCT250=



000
FTUS44 KLZK 291100
TAFHOT
TAF
KHOT 291140Z 2912/3012 29005KT P6SM BKN250 WS020/30030KT
     FM291600 33010G18KT P6SM SCT030
     FM292100 35009KT P6SM BKN040
     FM300100 02003KT P6SM SCT250=



000
FTUS44 KLZK 291100
TAFPBF
TAF
KPBF 291140Z 2912/3012 22010G18KT P6SM BKN250 WS020/26040KT
     FM291500 26010G20KT P6SM BKN250
     FM291800 34011G21KT P6SM SCT040
     FM292200 36009KT P6SM BKN040
     FM300300 01003KT P6SM SCT250=



000
FTUS44 KLZK 291100
TAFHRO
TAF
KHRO 291140Z 2912/3012 28010G20KT P6SM SCT250 WS020/33030KT
     FM291500 32012G22KT P6SM OVC015
     FM291900 34011G21KT P6SM BKN025
     FM300300 32006KT P6SM SCT250=



000
FTUS44 KLZK 291100
TAFLIT
TAF
KLIT 291140Z 2912/3012 23013G22KT P6SM BKN120 WS020/26040KT
     FM291700 34010G18KT P6SM SCT040 BKN250
     FM292300 36006KT P6SM BKN250
     FM300300 01003KT P6SM SCT250=



000
FTUS44 KLZK 291000 AAB
TAFLIT
TAF AMD
KLIT 291006Z 2910/3006 23013G22KT P6SM BKN120 WS020/24045KT
     FM291300 25010KT P6SM SCT120
     FM291700 34010G18KT P6SM SCT025
     FM292300 35012KT P6SM BKN025=



000
FTUS44 KLZK 290700 AAA
TAFHRO
TAF AMD
KHRO 290725Z 2907/3006 24012G25KT P6SM OVC250 WS020/28035KT
     FM291000 28010G20KT P6SM SCT015 SCT250 WS020/31035KT
     FM291500 32010G20KT P6SM OVC015
     FM291900 34011KT P6SM BKN025
     FM300300 32006KT P6SM SCT025=



000
FTUS44 KLZK 290700 AAA
TAFLIT
TAF AMD
KLIT 290722Z 2907/3006 21015G22KT P6SM BKN120 WS020/20035KT
     FM291000 23008KT P6SM SCT250 WS020/24045KT
     FM291200 25008KT P6SM SCT015 SCT250
     FM291700 34010G18KT P6SM SCT025
     FM292300 35012KT P6SM BKN025=



000
FTUS44 KLZK 290500
TAFLIT
TAF
KLIT 290520Z 2906/3006 17006KT P6SM SCT250 WS020/20035KT
     FM290900 23008KT P6SM SCT250 WS020/24045KT
     FM291200 25008KT P6SM SCT015 SCT250
     FM291700 34010G18KT P6SM SCT025
     FM292300 35012KT P6SM BKN025=



000
FTUS44 KLZK 290500
TAFHOT
TAF
KHOT 290520Z 2906/3006 17006KT P6SM SCT250 WS020/20035KT
     FM290900 24006KT P6SM SCT250 WS020/24045KT
     FM291200 28005KT P6SM SCT015 SCT250
     FM291700 34010G18KT P6SM SCT025
     FM292100 35009KT P6SM BKN025=



000
FTUS44 KLZK 290500
TAFHRO
TAF
KHRO 290520Z 2906/3006 20009G18KT P6SM SCT250 WS020/28035KT
     FM290900 28008KT P6SM SCT015 SCT250 WS020/31035KT
     FM291500 32010G20KT P6SM OVC015
     FM291900 34011KT P6SM BKN025
     FM300300 32006KT P6SM SCT025=



000
FTUS44 KLZK 290500
TAFPBF
TAF
KPBF 290520Z 2906/3006 19012KT P6SM SCT250 WS020/28035KT
     FM291000 22009KT P6SM BKN250 WS020/24050KT
     FM291400 25008KT P6SM SCT015 BKN250
     FM291800 34010G18KT P6SM SCT025
     FM300100 36009KT P6SM BKN025=



000
FTUS44 KLZK 282300 CCA
TAFHRO
TAF COR
KHRO 282357Z 2900/2924 17012G20KT P6SM SCT250 WS020/22050KT
     FM290300 22008KT P6SM SCT250 WS020/28035KT
     FM290900 28008KT P6SM SCT015 SCT250 WS020/31035KT
     FM291500 32010G20KT P6SM OVC015
     FM291900 34011KT P6SM BKN025=



000
FTUS44 KLZK 282300
TAFHRO
TAF
KHRO 282340Z 2900/2924 17011KT P6SM SCT250 WS020/22050KT
     FM290600 22008KT P6SM SCT250 WS020/28035KT
     FM290900 28008KT P6SM SCT015 SCT250 WS020/31035KT
     FM291500 32010G20KT P6SM OVC015
     FM291900 34011KT P6SM BKN025=



000
FTUS44 KLZK 282300
TAFPBF
TAF
KPBF 282340Z 2900/2924 13010KT P6SM BKN250 WS020/28035KT
     FM291000 23007KT P6SM BKN250 WS020/24050KT
     FM291300 28005KT P6SM SCT015 BKN250
     FM291800 34010G18KT P6SM SCT025=



000
FTUS44 KLZK 282300
TAFHOT
TAF
KHOT 282340Z 2900/2924 15006KT P6SM SCT250 WS020/20035KT
     FM290900 23006KT P6SM SCT250 WS020/24045KT
     FM291200 28005KT P6SM SCT015 SCT250
     FM291700 34010G18KT P6SM SCT025=



000
FTUS44 KLZK 282300
TAFLIT
TAF
KLIT 282340Z 2900/2924 13010KT P6SM BKN250 WS020/28035KT
     FM290800 23007KT P6SM BKN250 WS020/24050KT
     FM291200 28005KT P6SM SCT015 BKN250
     FM291600 34010G18KT P6SM SCT025=



000
FTUS44 KLZK 281700
TAFPBF
TAF
KPBF 281740Z 2818/2918 11010KT P6SM SKC
     FM290000 17010KT P6SM SCT250 WS020/20035KT
     FM290900 20010KT P6SM SCT250 WS020/24045KT
     FM291500 26010KT P6SM SCT250=



000
FTUS44 KLZK 281700
TAFLIT
TAF
KLIT 281740Z 2818/2918 14010KT P6SM FEW250
     FM290000 17009KT P6SM SCT250 WS020/28035KT
     FM290600 21010KT P6SM SCT250 WS020/24045KT
     FM291500 30008KT P6SM FEW250=



000
FTUS44 KLZK 281700
TAFHRO
TAF
KHRO 281740Z 2818/2918 15012G18KT P6SM SKC
     FM290300 18010KT P6SM SCT250 WS020/22050KT
     FM290900 27007KT P6SM SCT250 WS020/28035KT
     FM291200 30010KT P6SM SCT250=



000
FTUS44 KLZK 281700
TAFHOT
TAF
KHOT 281740Z 2818/2918 12007KT P6SM SKC
     FM290000 15004KT P6SM SCT250 WS020/20035KT
     FM290900 26004KT P6SM SCT250 WS020/24045KT
     FM291500 30008KT P6SM FEW250=



000
FTUS44 KLZK 281100
TAFPBF
TAF
KPBF 281134Z 2812/2912 10004KT P6SM SKC
     FM281600 16010KT P6SM SKC
     FM290000 17010KT P6SM SCT250 WS020/20035KT
     FM290900 20010KT P6SM SCT250 WS020/24045KT=



000
FTUS44 KLZK 281100
TAFLIT
TAF
KLIT 281134Z 2812/2912 10004KT P6SM SKC
     FM281700 15010KT P6SM SKC
     FM290000 17009KT P6SM SCT250 WS020/28035KT
     FM290600 21010KT P6SM SCT250 WS020/24045KT=



000
FTUS44 KLZK 281100
TAFHRO
TAF
KHRO 281134Z 2812/2912 14009KT P6SM SKC
     FM281800 16012G22KT P6SM SCT250 WS020/22035KT
     FM290300 18010KT P6SM SCT250 WS020/22050KT
     FM290900 27007KT P6SM SCT250 WS020/28035KT=



000
FTUS44 KLZK 281100
TAFHOT
TAF
KHOT 281134Z 2812/2912 10005KT P6SM SKC
     FM281800 18009KT P6SM SCT250
     FM290000 15004KT P6SM SCT250 WS020/20035KT
     FM290900 26004KT P6SM SCT250 WS020/24045KT=



000
FTUS44 KLZK 280500
TAFHRO
TAF
KHRO 280538Z 2806/2906 14005KT P6SM SKC
     FM281500 16010KT P6SM SKC
     FM281800 17012G22KT P6SM SCT250=



000
FTUS44 KLZK 280500
TAFLIT
TAF
KLIT 280538Z 2806/2906 10004KT P6SM SKC
     FM281600 16009KT P6SM SCT250=



000
FTUS44 KLZK 280500
TAFPBF
TAF
KPBF 280538Z 2806/2906 08004KT P6SM SKC
     FM281600 16008KT P6SM SCT250=



000
FTUS44 KLZK 280500
TAFHOT
TAF
KHOT 280538Z 2806/2906 09006KT P6SM SKC
     FM280900 VRB03KT P6SM SKC
     FM281600 15009KT P6SM SCT250=



000
FTUS44 KLZK 272300
TAFHRO
TAF
KHRO 272322Z 2800/2824 VRB05KT P6SM SKC
     FM280300 14003KT P6SM SKC
     FM281500 16010KT P6SM SKC
     FM281900 17012G20KT P6SM SCT250=



000
FTUS44 KLZK 272300
TAFLIT
TAF
KLIT 272322Z 2800/2824 12004KT P6SM SKC
     FM281600 16008KT P6SM SKC=



000
FTUS44 KLZK 272300
TAFHOT
TAF
KHOT 272322Z 2800/2824 VRB04KT P6SM SKC
     FM281600 15008KT P6SM SKC=



000
FTUS44 KLZK 272300
TAFPBF
TAF
KPBF 272322Z 2800/2824 08004KT P6SM SKC
     FM281600 16008KT P6SM SKC=



000
FTUS44 KLZK 271700
TAFHRO
TAF
KHRO 271721Z 2718/2818 VRB05KT P6SM SKC
     FM280400 16007KT P6SM SKC
     FM281400 18009G15KT P6SM SKC=



000
FTUS44 KLZK 271700
TAFLIT
TAF
KLIT 271721Z 2718/2818 34005KT P6SM SKC
     FM281600 16005KT P6SM SKC=



000
FTUS44 KLZK 271700
TAFPBF
TAF
KPBF 271721Z 2718/2818 VRB05KT P6SM SKC
     FM281600 16007KT P6SM SKC=



000
FTUS44 KLZK 271700
TAFHOT
TAF
KHOT 271721Z 2718/2818 VRB05KT P6SM SKC
     FM281600 17004G15KT P6SM SKC=



    US Dept of Commerce
    National Oceanic and Atmospheric Administration
    National Weather Service
    1325 East West Highway
    Silver Spring, MD 20910
    Page Author: NWS Internet Services Team
Disclaimer
Information Quality
Credits
Glossary
Privacy Policy
Freedom of Information Act (FOIA)
About Us
Career Opportunities